This is the latest recevied weather packets stored in our database for station/object K4SHP-16. If no packets are shown the sender has not sent any weather packets the latest 10 day(s).
| Time | Temp. | Humidity | Pressure | Rain* | Wind** | Luminosity | Snow |
|---|---|---|---|---|---|---|---|
| 1777613245 | 12.78° C | 93% | 1012.5 hPa | 0 mm | - | - | - |
| 1777607644 | 13.33° C | 92% | 1012.4 hPa | 0 mm | - | - | - |
| 1777606564 | 13.33° C | 92% | 1012.2 hPa | 0 mm | - | - | - |
| 1777601884 | 14.44° C | 91% | 1012 hPa | 0 mm | - | - | - |
| 1777599364 | 15.56° C | 90% | 1011.6 hPa | 0 mm | - | - | - |
| 1777597204 | 16.67° C | 89% | 1011.1 hPa | 0 mm | - | - | - |
| 1777595224 | 17.22° C | 85% | 1010.3 hPa | 0 mm | - | - | - |
| 1777593244 | 18.89° C | 81% | 1010.1 hPa | 0 mm | - | - | - |
| 1777590544 | 22.78° C | 68% | 1009.9 hPa | 0 mm | - | - | - |
| 1777588564 | 23.33° C | 66% | 1009.5 hPa | 0 mm | - | - | - |
| 1777588024 | 23.33° C | 66% | 1009.7 hPa | 0 mm | - | - | - |
| 1777585504 | 23.89° C | 65% | 1009.8 hPa | 0 mm | - | - | - |
| 1777584424 | 23.89° C | 65% | 1009.8 hPa | 0 mm | - | - | - |
| 1777577245 | 23.33° C | 65% | 1010 hPa | 0 mm | - | - | - |
| 1777576705 | 22.78° C | 69% | 1010.1 hPa | 0 mm | - | - | - |
| 1777574164 | 20.56° C | 75% | 1010.2 hPa | 0 mm | - | - | - |
| 1777568944 | 19.44° C | 83% | 1009.9 hPa | 0 mm | - | - | - |
| 1777568404 | 19.44° C | 82% | 1010 hPa | 0 mm | - | - | - |
| 1777566964 | 19.44° C | 82% | 1010.1 hPa | 0 mm | - | - | - |
| 1777565344 | 18.33° C | 86% | 1010.4 hPa | 0 mm | - | - | - |
| 1777563904 | 17.78° C | 87% | 1010.6 hPa | 0 mm | - | - | - |
| 1777561744 | 17.22° C | 89% | 1011.3 hPa | 0 mm | - | - | - |
| 1777560325 | 17.22° C | 89% | 1011.1 hPa | 0 mm | - | - | - |
| 1777559223 | 17.78° C | 91% | 1011.3 hPa | 0 mm | - | - | - |
| 1777558144 | 17.78° C | 91% | 1011.3 hPa | 0 mm | - | - | - |
* Rain latest hour (hover to see other rain measurements)
** Current wind speed in m/s (hover to see current wind gust speed)